sensor_id;sensor_type;location;lat;lon;timestamp;P1;durP1;ratioP1;P2;durP2;ratioP2
40931;SDS011;36257;46.052;12.540;2024-02-28T01:58:54;5.38;;;3.00;;
40931;SDS011;36257;46.052;12.540;2024-02-28T02:01:21;7.60;;;3.03;;
40931;SDS011;36257;46.052;12.540;2024-02-28T02:03:47;9.98;;;2.92;;
40931;SDS011;36257;46.052;12.540;2024-02-28T02:06:13;4.80;;;2.85;;
40931;SDS011;36257;46.052;12.540;2024-02-28T02:08:39;6.50;;;3.17;;
40931;SDS011;36257;46.052;12.540;2024-02-28T02:11:06;10.10;;;3.70;;
40931;SDS011;36257;46.052;12.540;2024-02-28T02:13:32;8.48;;;2.55;;
40931;SDS011;36257;46.052;12.540;2024-02-28T02:15:57;6.68;;;2.95;;
40931;SDS011;36257;46.052;12.540;2024-02-28T02:18:23;8.43;;;3.20;;
40931;SDS011;36257;46.052;12.540;2024-02-28T02:20:54;10.20;;;3.20;;
40931;SDS011;36257;46.052;12.540;2024-02-28T02:25:52;8.68;;;3.08;;
40931;SDS011;36257;46.052;12.540;2024-02-28T02:28:18;6.30;;;3.22;;
40931;SDS011;36257;46.052;12.540;2024-02-28T02:30:43;10.85;;;3.33;;
40931;SDS011;36257;46.052;12.540;2024-02-28T02:33:10;7.43;;;3.05;;
40931;SDS011;36257;46.052;12.540;2024-02-28T02:35:36;7.75;;;3.25;;
40931;SDS011;36257;46.052;12.540;2024-02-28T02:38:02;5.00;;;3.00;;
40931;SDS011;36257;46.052;12.540;2024-02-28T02:40:28;13.15;;;4.20;;
40931;SDS011;36257;46.052;12.540;2024-02-28T02:42:53;6.65;;;3.08;;
40931;SDS011;36257;46.052;12.540;2024-02-28T02:45:19;6.82;;;3.15;;
40931;SDS011;36257;46.052;12.540;2024-02-28T02:47:44;7.20;;;3.13;;
40931;SDS011;36257;46.052;12.540;2024-02-28T02:50:10;8.35;;;4.03;;
40931;SDS011;36257;46.052;12.540;2024-02-28T02:52:35;6.07;;;2.95;;
40931;SDS011;36257;46.052;12.540;2024-02-28T02:55:01;6.35;;;3.05;;
40931;SDS011;36257;46.052;12.540;2024-02-28T02:57:27;8.10;;;3.15;;
40931;SDS011;36257;46.052;12.540;2024-02-28T02:59:52;7.03;;;3.25;;
40931;SDS011;36257;46.052;12.540;2024-02-28T03:02:18;11.00;;;3.55;;
40931;SDS011;36257;46.052;12.540;2024-02-28T03:04:44;7.85;;;3.35;;
40931;SDS011;36257;46.052;12.540;2024-02-28T03:07:09;9.07;;;3.70;;
40931;SDS011;36257;46.052;12.540;2024-02-28T03:09:35;7.53;;;3.20;;
40931;SDS011;36257;46.052;12.540;2024-02-28T03:12:00;12.25;;;3.90;;
40931;SDS011;36257;46.052;12.540;2024-02-28T03:14:26;8.98;;;2.67;;
40931;SDS011;36257;46.052;12.540;2024-02-28T03:16:52;6.93;;;2.85;;
40931;SDS011;36257;46.052;12.540;2024-02-28T03:19:18;6.63;;;2.90;;
40931;SDS011;36257;46.052;12.540;2024-02-28T03:21:44;8.90;;;3.22;;
40931;SDS011;36257;46.052;12.540;2024-02-28T03:24:10;10.30;;;3.20;;
40931;SDS011;36257;46.052;12.540;2024-02-28T03:26:35;9.20;;;3.00;;
40931;SDS011;36257;46.052;12.540;2024-02-28T03:29:01;9.63;;;2.72;;
40931;SDS011;36257;46.052;12.540;2024-02-28T03:31:27;5.63;;;2.72;;
40931;SDS011;36257;46.052;12.540;2024-02-28T03:33:52;14.18;;;4.18;;
40931;SDS011;36257;46.052;12.540;2024-02-28T03:36:18;12.65;;;3.55;;
40931;SDS011;36257;46.052;12.540;2024-02-28T03:38:44;8.02;;;2.97;;
40931;SDS011;36257;46.052;12.540;2024-02-28T03:41:12;6.57;;;2.72;;
40931;SDS011;36257;46.052;12.540;2024-02-28T03:48:41;6.85;;;2.60;;
40931;SDS011;36257;46.052;12.540;2024-02-28T03:58:49;16.77;;;3.65;;
40931;SDS011;36257;46.052;12.540;2024-02-28T04:01:14;4.60;;;2.60;;
40931;SDS011;36257;46.052;12.540;2024-02-28T04:03:40;8.18;;;2.85;;
40931;SDS011;36257;46.052;12.540;2024-02-28T04:08:40;6.88;;;3.38;;
40931;SDS011;36257;46.052;12.540;2024-02-28T04:13:31;6.97;;;3.00;;
40931;SDS011;36257;46.052;12.540;2024-02-28T04:15:57;8.95;;;2.72;;
40931;SDS011;36257;46.052;12.540;2024-02-28T04:18:22;4.43;;;2.70;;
40931;SDS011;36257;46.052;12.540;2024-02-28T04:20:48;9.13;;;2.58;;
40931;SDS011;36257;46.052;12.540;2024-02-28T04:23:13;4.82;;;2.63;;
40931;SDS011;36257;46.052;12.540;2024-02-28T04:25:39;5.70;;;2.33;;
40931;SDS011;36257;46.052;12.540;2024-02-28T04:28:06;7.38;;;2.08;;
40931;SDS011;36257;46.052;12.540;2024-02-28T04:30:33;3.38;;;2.22;;
40931;SDS011;36257;46.052;12.540;2024-02-28T04:32:59;6.60;;;2.33;;
40931;SDS011;36257;46.052;12.540;2024-02-28T04:35:25;7.25;;;2.42;;
40931;SDS011;36257;46.052;12.540;2024-02-28T04:37:50;3.20;;;2.00;;
40931;SDS011;36257;46.052;12.540;2024-02-28T04:40:16;5.13;;;2.10;;
40931;SDS011;36257;46.052;12.540;2024-02-28T04:42:42;8.38;;;2.67;;
40931;SDS011;36257;46.052;12.540;2024-02-28T04:45:08;3.97;;;2.20;;
40931;SDS011;36257;46.052;12.540;2024-02-28T04:47:34;5.32;;;2.72;;
40931;SDS011;36257;46.052;12.540;2024-02-28T04:49:59;7.00;;;2.60;;
40931;SDS011;36257;46.052;12.540;2024-02-28T04:52:25;8.57;;;2.75;;
40931;SDS011;36257;46.052;12.540;2024-02-28T04:54:52;5.20;;;2.50;;
40931;SDS011;36257;46.052;12.540;2024-02-28T04:57:18;5.63;;;2.58;;
40931;SDS011;36257;46.052;12.540;2024-02-28T04:59:44;4.88;;;2.65;;
40931;SDS011;36257;46.052;12.540;2024-02-28T05:02:10;5.07;;;2.67;;
40931;SDS011;36257;46.052;12.540;2024-02-28T05:04:36;3.20;;;2.45;;
40931;SDS011;36257;46.052;12.540;2024-02-28T05:07:02;4.95;;;2.42;;
40931;SDS011;36257;46.052;12.540;2024-02-28T05:09:28;3.63;;;2.45;;
40931;SDS011;36257;46.052;12.540;2024-02-28T05:11:54;4.88;;;2.42;;
40931;SDS011;36257;46.052;12.540;2024-02-28T05:14:19;7.15;;;2.47;;
40931;SDS011;36257;46.052;12.540;2024-02-28T05:37:28;1.48;;;1.38;;
40931;SDS011;36257;46.052;12.540;2024-02-28T05:39:53;7.65;;;1.83;;
40931;SDS011;36257;46.052;12.540;2024-02-28T05:42:19;0.93;;;0.90;;
40931;SDS011;36257;46.052;12.540;2024-02-28T05:44:48;1.55;;;1.45;;
40931;SDS011;36257;46.052;12.540;2024-02-28T05:47:14;2.10;;;1.20;;
40931;SDS011;36257;46.052;12.540;2024-02-28T05:49:40;2.15;;;1.65;;
40931;SDS011;36257;46.052;12.540;2024-02-28T05:52:05;3.13;;;1.38;;
40931;SDS011;36257;46.052;12.540;2024-02-28T05:54:31;1.90;;;1.40;;
40931;SDS011;36257;46.052;12.540;2024-02-28T05:59:25;2.97;;;2.08;;
40931;SDS011;36257;46.052;12.540;2024-02-28T06:01:51;4.35;;;1.60;;
40931;SDS011;36257;46.052;12.540;2024-02-28T06:04:16;1.45;;;1.25;;
40931;SDS011;36257;46.052;12.540;2024-02-28T06:06:42;2.58;;;1.58;;
40931;SDS011;36257;46.052;12.540;2024-02-28T06:09:08;7.53;;;2.03;;
40931;SDS011;36257;46.052;12.540;2024-02-28T06:11:33;1.90;;;1.80;;
40931;SDS011;36257;46.052;12.540;2024-02-28T06:13:59;2.58;;;1.60;;
40931;SDS011;36257;46.052;12.540;2024-02-28T06:16:24;2.88;;;1.65;;
40931;SDS011;36257;46.052;12.540;2024-02-28T06:18:50;2.00;;;1.75;;
40931;SDS011;36257;46.052;12.540;2024-02-28T06:21:16;1.98;;;1.40;;
40931;SDS011;36257;46.052;12.540;2024-02-28T06:23:41;2.38;;;2.10;;
40931;SDS011;36257;46.052;12.540;2024-02-28T06:26:07;5.18;;;2.38;;
40931;SDS011;36257;46.052;12.540;2024-02-28T06:28:39;3.63;;;2.90;;
40931;SDS011;36257;46.052;12.540;2024-02-28T06:31:11;3.17;;;2.60;;
40931;SDS011;36257;46.052;12.540;2024-02-28T06:33:38;3.58;;;2.60;;
40931;SDS011;36257;46.052;12.540;2024-02-28T06:36:06;3.10;;;2.00;;
40931;SDS011;36257;46.052;12.540;2024-02-28T06:38:34;3.03;;;2.42;;
40931;SDS011;36257;46.052;12.540;2024-02-28T06:41:01;2.00;;;1.90;;
40931;SDS011;36257;46.052;12.540;2024-02-28T06:43:32;2.67;;;1.67;;
40931;SDS011;36257;46.052;12.540;2024-02-28T06:45:59;1.65;;;1.40;;
40931;SDS011;36257;46.052;12.540;2024-02-28T06:48:24;1.33;;;1.23;;
40931;SDS011;36257;46.052;12.540;2024-02-28T06:50:50;2.40;;;1.50;;
40931;SDS011;36257;46.052;12.540;2024-02-28T06:53:16;1.70;;;1.60;;
40931;SDS011;36257;46.052;12.540;2024-02-28T06:55:42;1.45;;;1.35;;
40931;SDS011;36257;46.052;12.540;2024-02-28T06:58:07;8.45;;;4.55;;
40931;SDS011;36257;46.052;12.540;2024-02-28T07:00:33;8.68;;;5.63;;
40931;SDS011;36257;46.052;12.540;2024-02-28T07:02:59;8.20;;;5.10;;
40931;SDS011;36257;46.052;12.540;2024-02-28T07:05:24;7.13;;;4.93;;
40931;SDS011;36257;46.052;12.540;2024-02-28T07:07:50;4.65;;;2.83;;
40931;SDS011;36257;46.052;12.540;2024-02-28T07:10:15;2.22;;;1.30;;
40931;SDS011;36257;46.052;12.540;2024-02-28T07:12:41;3.75;;;1.40;;
40931;SDS011;36257;46.052;12.540;2024-02-28T07:15:06;4.68;;;1.27;;
40931;SDS011;36257;46.052;12.540;2024-02-28T07:17:32;1.88;;;1.50;;
40931;SDS011;36257;46.052;12.540;2024-02-28T07:19:58;2.00;;;1.52;;
40931;SDS011;36257;46.052;12.540;2024-02-28T07:22:23;5.03;;;2.00;;
40931;SDS011;36257;46.052;12.540;2024-02-28T07:24:49;2.35;;;1.75;;
40931;SDS011;36257;46.052;12.540;2024-02-28T07:27:15;2.00;;;1.83;;
40931;SDS011;36257;46.052;12.540;2024-02-28T07:29:41;2.72;;;1.40;;
40931;SDS011;36257;46.052;12.540;2024-02-28T07:32:06;4.32;;;1.73;;
40931;SDS011;36257;46.052;12.540;2024-02-28T07:34:32;4.03;;;1.92;;
40931;SDS011;36257;46.052;12.540;2024-02-28T07:36:59;2.40;;;1.70;;
40931;SDS011;36257;46.052;12.540;2024-02-28T07:39:24;3.15;;;1.80;;
40931;SDS011;36257;46.052;12.540;2024-02-28T07:41:50;2.88;;;2.40;;
40931;SDS011;36257;46.052;12.540;2024-02-28T07:44:16;7.18;;;3.60;;
40931;SDS011;36257;46.052;12.540;2024-02-28T07:46:42;3.58;;;3.13;;
40931;SDS011;36257;46.052;12.540;2024-02-28T07:49:07;4.00;;;2.85;;
40931;SDS011;36257;46.052;12.540;2024-02-28T07:51:33;8.27;;;4.22;;
40931;SDS011;36257;46.052;12.540;2024-02-28T07:53:58;6.00;;;5.40;;
40931;SDS011;36257;46.052;12.540;2024-02-28T07:56:24;7.45;;;5.45;;
40931;SDS011;36257;46.052;12.540;2024-02-28T07:58:50;5.50;;;4.10;;
40931;SDS011;36257;46.052;12.540;2024-02-28T08:01:15;6.10;;;3.50;;
40931;SDS011;36257;46.052;12.540;2024-02-28T08:03:41;5.68;;;3.70;;
40931;SDS011;36257;46.052;12.540;2024-02-28T08:06:07;2.03;;;1.80;;
40931;SDS011;36257;46.052;12.540;2024-02-28T08:08:36;3.90;;;2.90;;
40931;SDS011;36257;46.052;12.540;2024-02-28T08:11:02;4.22;;;2.90;;
40931;SDS011;36257;46.052;12.540;2024-02-28T08:13:28;8.15;;;4.28;;
40931;SDS011;36257;46.052;12.540;2024-02-28T08:15:54;5.63;;;3.08;;
40931;SDS011;36257;46.052;12.540;2024-02-28T08:18:20;8.73;;;2.90;;
40931;SDS011;36257;46.052;12.540;2024-02-28T08:20:46;5.45;;;4.03;;
40931;SDS011;36257;46.052;12.540;2024-02-28T08:23:11;6.88;;;3.47;;
40931;SDS011;36257;46.052;12.540;2024-02-28T08:25:37;8.30;;;2.33;;
40931;SDS011;36257;46.052;12.540;2024-02-28T08:28:03;9.55;;;2.08;;
40931;SDS011;36257;46.052;12.540;2024-02-28T08:30:29;7.97;;;2.25;;
40931;SDS011;36257;46.052;12.540;2024-02-28T08:32:56;4.73;;;2.30;;
40931;SDS011;36257;46.052;12.540;2024-02-28T08:35:23;8.93;;;3.20;;
40931;SDS011;36257;46.052;12.540;2024-02-28T08:37:49;5.28;;;2.60;;
40931;SDS011;36257;46.052;12.540;2024-02-28T08:40:14;8.88;;;3.42;;
40931;SDS011;36257;46.052;12.540;2024-02-28T08:42:40;9.10;;;3.95;;
40931;SDS011;36257;46.052;12.540;2024-02-28T08:45:06;6.22;;;2.80;;
40931;SDS011;36257;46.052;12.540;2024-02-28T08:47:33;4.63;;;2.38;;
40931;SDS011;36257;46.052;12.540;2024-02-28T08:49:58;4.53;;;2.20;;
40931;SDS011;36257;46.052;12.540;2024-02-28T08:52:24;6.30;;;2.92;;
40931;SDS011;36257;46.052;12.540;2024-02-28T08:54:50;4.47;;;2.40;;
40931;SDS011;36257;46.052;12.540;2024-02-28T08:57:15;8.65;;;2.47;;
40931;SDS011;36257;46.052;12.540;2024-02-28T08:59:41;4.40;;;2.08;;
40931;SDS011;36257;46.052;12.540;2024-02-28T09:02:07;10.40;;;2.10;;
40931;SDS011;36257;46.052;12.540;2024-02-28T09:04:33;5.32;;;2.25;;
40931;SDS011;36257;46.052;12.540;2024-02-28T09:06:59;3.90;;;1.85;;
40931;SDS011;36257;46.052;12.540;2024-02-28T09:09:26;12.85;;;3.17;;
40931;SDS011;36257;46.052;12.540;2024-02-28T09:11:53;4.13;;;2.30;;
40931;SDS011;36257;46.052;12.540;2024-02-28T09:14:19;5.97;;;1.98;;
40931;SDS011;36257;46.052;12.540;2024-02-28T09:16:44;3.10;;;2.00;;
40931;SDS011;36257;46.052;12.540;2024-02-28T09:19:10;5.18;;;1.88;;
40931;SDS011;36257;46.052;12.540;2024-02-28T09:21:36;2.67;;;1.75;;
40931;SDS011;36257;46.052;12.540;2024-02-28T09:24:01;3.65;;;1.98;;
40931;SDS011;36257;46.052;12.540;2024-02-28T09:26:27;4.93;;;1.95;;
40931;SDS011;36257;46.052;12.540;2024-02-28T09:28:52;2.47;;;2.22;;
40931;SDS011;36257;46.052;12.540;2024-02-28T09:31:18;5.05;;;2.55;;
40931;SDS011;36257;46.052;12.540;2024-02-28T09:33:44;4.32;;;2.40;;
40931;SDS011;36257;46.052;12.540;2024-02-28T09:36:11;3.85;;;2.10;;
40931;SDS011;36257;46.052;12.540;2024-02-28T09:38:38;2.97;;;1.75;;
40931;SDS011;36257;46.052;12.540;2024-02-28T09:41:06;1.30;;;1.20;;
40931;SDS011;36257;46.052;12.540;2024-02-28T09:43:32;1.98;;;1.30;;
40931;SDS011;36257;46.052;12.540;2024-02-28T09:46:03;4.38;;;2.05;;
40931;SDS011;36257;46.052;12.540;2024-02-28T09:48:32;3.88;;;1.75;;
40931;SDS011;36257;46.052;12.540;2024-02-28T09:50:58;2.35;;;1.27;;
40931;SDS011;36257;46.052;12.540;2024-02-28T09:53:25;4.82;;;2.15;;
40931;SDS011;36257;46.052;12.540;2024-02-28T09:55:51;3.33;;;1.70;;
40931;SDS011;36257;46.052;12.540;2024-02-28T09:58:18;2.05;;;1.65;;
40931;SDS011;36257;46.052;12.540;2024-02-28T10:00:47;4.20;;;1.58;;
40931;SDS011;36257;46.052;12.540;2024-02-28T10:03:16;2.65;;;1.42;;
40931;SDS011;36257;46.052;12.540;2024-02-28T10:05:44;3.72;;;2.42;;
40931;SDS011;36257;46.052;12.540;2024-02-28T10:08:11;8.00;;;2.25;;
40931;SDS011;36257;46.052;12.540;2024-02-28T10:10:38;5.38;;;1.88;;
40931;SDS011;36257;46.052;12.540;2024-02-28T10:13:09;2.33;;;1.50;;
40931;SDS011;36257;46.052;12.540;2024-02-28T10:15:34;4.32;;;1.40;;
40931;SDS011;36257;46.052;12.540;2024-02-28T10:18:00;3.80;;;1.42;;
40931;SDS011;36257;46.052;12.540;2024-02-28T10:20:25;2.63;;;1.40;;
40931;SDS011;36257;46.052;12.540;2024-02-28T10:22:52;3.83;;;2.10;;
40931;SDS011;36257;46.052;12.540;2024-02-28T10:25:18;4.03;;;1.95;;
40931;SDS011;36257;46.052;12.540;2024-02-28T10:27:44;3.25;;;2.25;;
40931;SDS011;36257;46.052;12.540;2024-02-28T10:30:11;4.10;;;3.13;;
40931;SDS011;36257;46.052;12.540;2024-02-28T10:32:37;21.63;;;20.10;;
40931;SDS011;36257;46.052;12.540;2024-02-28T10:35:19;4.43;;;2.88;;
40931;SDS011;36257;46.052;12.540;2024-02-28T10:37:45;7.55;;;1.73;;
40931;SDS011;36257;46.052;12.540;2024-02-28T10:40:12;6.03;;;2.17;;
40931;SDS011;36257;46.052;12.540;2024-02-28T10:42:41;5.18;;;2.22;;
40931;SDS011;36257;46.052;12.540;2024-02-28T10:45:09;5.40;;;2.42;;
40931;SDS011;36257;46.052;12.540;2024-02-28T10:47:40;8.15;;;3.33;;
40931;SDS011;36257;46.052;12.540;2024-02-28T10:50:06;4.63;;;2.58;;
40931;SDS011;36257;46.052;12.540;2024-02-28T10:52:32;3.00;;;2.00;;
40931;SDS011;36257;46.052;12.540;2024-02-28T10:54:59;4.53;;;2.58;;
40931;SDS011;36257;46.052;12.540;2024-02-28T10:59:54;5.03;;;2.53;;
40931;SDS011;36257;46.052;12.540;2024-02-28T11:02:21;4.82;;;2.78;;
40931;SDS011;36257;46.052;12.540;2024-02-28T11:04:48;7.53;;;3.50;;
40931;SDS011;36257;46.052;12.540;2024-02-28T11:07:20;12.13;;;4.68;;
40931;SDS011;36257;46.052;12.540;2024-02-28T11:09:53;11.60;;;4.28;;
40931;SDS011;36257;46.052;12.540;2024-02-28T11:12:26;9.52;;;3.60;;
40931;SDS011;36257;46.052;12.540;2024-02-28T11:14:59;14.10;;;3.15;;
40931;SDS011;36257;46.052;12.540;2024-02-28T11:17:27;9.60;;;3.63;;
40931;SDS011;36257;46.052;12.540;2024-02-28T11:19:57;10.13;;;4.68;;
40931;SDS011;36257;46.052;12.540;2024-02-28T11:22:22;12.05;;;5.60;;
40931;SDS011;36257;46.052;12.540;2024-02-28T11:24:48;16.13;;;5.93;;
40931;SDS011;36257;46.052;12.540;2024-02-28T11:27:18;7.78;;;4.35;;
40931;SDS011;36257;46.052;12.540;2024-02-28T11:29:44;16.00;;;5.35;;
40931;SDS011;36257;46.052;12.540;2024-02-28T11:32:14;11.95;;;6.55;;
40931;SDS011;36257;46.052;12.540;2024-02-28T11:34:41;12.60;;;3.63;;
40931;SDS011;36257;46.052;12.540;2024-02-28T11:37:08;12.00;;;4.82;;
40931;SDS011;36257;46.052;12.540;2024-02-28T11:39:34;16.85;;;7.63;;
40931;SDS011;36257;46.052;12.540;2024-02-28T11:42:14;12.20;;;5.18;;
40931;SDS011;36257;46.052;12.540;2024-02-28T11:44:41;8.77;;;5.15;;
40931;SDS011;36257;46.052;12.540;2024-02-28T11:47:10;7.05;;;4.18;;
40931;SDS011;36257;46.052;12.540;2024-02-28T11:49:37;7.95;;;4.00;;
40931;SDS011;36257;46.052;12.540;2024-02-28T11:52:04;6.65;;;3.40;;
40931;SDS011;36257;46.052;12.540;2024-02-28T11:54:30;13.73;;;3.03;;
40931;SDS011;36257;46.052;12.540;2024-02-28T11:56:55;17.40;;;2.75;;
40931;SDS011;36257;46.052;12.540;2024-02-28T11:59:21;11.35;;;2.22;;
40931;SDS011;36257;46.052;12.540;2024-02-28T12:01:47;11.68;;;2.78;;
40931;SDS011;36257;46.052;12.540;2024-02-28T12:04:12;11.68;;;3.38;;
40931;SDS011;36257;46.052;12.540;2024-02-28T12:06:39;16.77;;;2.65;;
40931;SDS011;36257;46.052;12.540;2024-02-28T12:09:06;16.63;;;2.92;;
40931;SDS011;36257;46.052;12.540;2024-02-28T12:11:35;12.10;;;2.83;;
40931;SDS011;36257;46.052;12.540;2024-02-28T12:14:08;12.23;;;3.37;;
40931;SDS011;36257;46.052;12.540;2024-02-28T12:16:35;8.68;;;2.10;;
40931;SDS011;36257;46.052;12.540;2024-02-28T12:19:03;9.07;;;2.42;;
40931;SDS011;36257;46.052;12.540;2024-02-28T12:21:39;13.30;;;3.05;;
40931;SDS011;36257;46.052;12.540;2024-02-28T12:24:06;14.50;;;2.13;;
40931;SDS011;36257;46.052;12.540;2024-02-28T12:26:34;17.80;;;4.68;;
40931;SDS011;36257;46.052;12.540;2024-02-28T12:28:59;15.80;;;5.18;;
40931;SDS011;36257;46.052;12.540;2024-02-28T12:31:26;15.40;;;5.20;;
40931;SDS011;36257;46.052;12.540;2024-02-28T12:33:52;16.70;;;4.80;;
40931;SDS011;36257;46.052;12.540;2024-02-28T12:36:19;16.02;;;4.30;;
40931;SDS011;36257;46.052;12.540;2024-02-28T12:38:45;10.90;;;4.03;;
40931;SDS011;36257;46.052;12.540;2024-02-28T12:41:10;9.50;;;3.88;;
40931;SDS011;36257;46.052;12.540;2024-02-28T12:43:36;14.25;;;4.78;;
40931;SDS011;36257;46.052;12.540;2024-02-28T12:46:04;11.88;;;5.25;;
40931;SDS011;36257;46.052;12.540;2024-02-28T12:48:30;15.15;;;5.88;;
40931;SDS011;36257;46.052;12.540;2024-02-28T12:50:56;12.07;;;5.22;;
40931;SDS011;36257;46.052;12.540;2024-02-28T12:53:22;11.82;;;4.65;;
40931;SDS011;36257;46.052;12.540;2024-02-28T12:55:48;13.65;;;3.58;;
40931;SDS011;36257;46.052;12.540;2024-02-28T12:58:14;14.90;;;4.63;;
40931;SDS011;36257;46.052;12.540;2024-02-28T13:00:39;5.10;;;3.13;;
40931;SDS011;36257;46.052;12.540;2024-02-28T13:03:05;12.27;;;3.75;;
40931;SDS011;36257;46.052;12.540;2024-02-28T13:05:31;9.13;;;2.95;;
40931;SDS011;36257;46.052;12.540;2024-02-28T13:07:57;13.38;;;3.40;;
40931;SDS011;36257;46.052;12.540;2024-02-28T13:10:22;6.72;;;1.85;;
40931;SDS011;36257;46.052;12.540;2024-02-28T13:12:48;7.80;;;2.35;;
40931;SDS011;36257;46.052;12.540;2024-02-28T13:15:14;9.95;;;2.55;;
40931;SDS011;36257;46.052;12.540;2024-02-28T13:17:39;5.07;;;1.88;;
40931;SDS011;36257;46.052;12.540;2024-02-28T13:20:07;7.95;;;2.30;;
40931;SDS011;36257;46.052;12.540;2024-02-28T13:22:33;13.18;;;3.15;;
40931;SDS011;36257;46.052;12.540;2024-02-28T13:24:58;8.85;;;2.80;;
40931;SDS011;36257;46.052;12.540;2024-02-28T13:27:25;9.27;;;2.43;;
40931;SDS011;36257;46.052;12.540;2024-02-28T13:29:51;6.68;;;2.45;;
40931;SDS011;36257;46.052;12.540;2024-02-28T13:32:17;4.22;;;1.55;;
40931;SDS011;36257;46.052;12.540;2024-02-28T13:34:42;10.07;;;2.15;;
40931;SDS011;36257;46.052;12.540;2024-02-28T13:37:08;4.93;;;1.85;;
40931;SDS011;36257;46.052;12.540;2024-02-28T13:39:34;4.05;;;2.00;;
40931;SDS011;36257;46.052;12.540;2024-02-28T13:42:00;7.82;;;2.45;;
40931;SDS011;36257;46.052;12.540;2024-02-28T13:44:25;9.93;;;2.67;;
40931;SDS011;36257;46.052;12.540;2024-02-28T13:46:52;9.27;;;2.35;;
40931;SDS011;36257;46.052;12.540;2024-02-28T13:49:18;10.48;;;2.47;;
40931;SDS011;36257;46.052;12.540;2024-02-28T13:51:45;8.60;;;2.50;;
40931;SDS011;36257;46.052;12.540;2024-02-28T13:54:11;7.97;;;2.67;;
40931;SDS011;36257;46.052;12.540;2024-02-28T13:56:36;8.27;;;2.40;;
40931;SDS011;36257;46.052;12.540;2024-02-28T13:59:02;11.88;;;2.72;;
40931;SDS011;36257;46.052;12.540;2024-02-28T14:01:28;11.93;;;2.50;;
40931;SDS011;36257;46.052;12.540;2024-02-28T14:03:54;8.02;;;2.78;;
40931;SDS011;36257;46.052;12.540;2024-02-28T14:06:19;9.93;;;2.97;;
40931;SDS011;36257;46.052;12.540;2024-02-28T14:08:45;8.27;;;2.63;;
40931;SDS011;36257;46.052;12.540;2024-02-28T14:11:11;11.93;;;2.80;;
40931;SDS011;36257;46.052;12.540;2024-02-28T14:13:36;9.55;;;2.40;;
40931;SDS011;36257;46.052;12.540;2024-02-28T14:16:04;12.60;;;2.95;;
40931;SDS011;36257;46.052;12.540;2024-02-28T14:18:30;13.60;;;2.60;;
40931;SDS011;36257;46.052;12.540;2024-02-28T14:20:56;16.17;;;2.60;;
40931;SDS011;36257;46.052;12.540;2024-02-28T14:23:22;11.80;;;2.70;;
40931;SDS011;36257;46.052;12.540;2024-02-28T14:25:47;10.32;;;2.55;;
40931;SDS011;36257;46.052;12.540;2024-02-28T14:28:13;13.75;;;3.08;;
40931;SDS011;36257;46.052;12.540;2024-02-28T14:30:39;14.95;;;3.25;;
40931;SDS011;36257;46.052;12.540;2024-02-28T14:33:04;24.00;;;3.95;;
40931;SDS011;36257;46.052;12.540;2024-02-28T14:35:30;15.68;;;3.60;;
40931;SDS011;36257;46.052;12.540;2024-02-28T14:37:56;21.40;;;3.50;;
40931;SDS011;36257;46.052;12.540;2024-02-28T14:40:21;19.92;;;3.53;;
40931;SDS011;36257;46.052;12.540;2024-02-28T14:42:47;24.90;;;3.55;;
40931;SDS011;36257;46.052;12.540;2024-02-28T14:45:13;13.25;;;3.13;;
40931;SDS011;36257;46.052;12.540;2024-02-28T14:47:42;15.77;;;4.07;;
40931;SDS011;36257;46.052;12.540;2024-02-28T14:50:09;13.52;;;3.35;;
40931;SDS011;36257;46.052;12.540;2024-02-28T14:52:39;19.50;;;3.88;;
40931;SDS011;36257;46.052;12.540;2024-02-28T14:55:06;18.13;;;4.03;;
40931;SDS011;36257;46.052;12.540;2024-02-28T14:57:33;17.30;;;3.22;;
40931;SDS011;36257;46.052;12.540;2024-02-28T14:59:59;17.40;;;3.92;;
40931;SDS011;36257;46.052;12.540;2024-02-28T15:02:25;16.73;;;3.72;;
40931;SDS011;36257;46.052;12.540;2024-02-28T15:04:51;15.82;;;2.85;;
40931;SDS011;36257;46.052;12.540;2024-02-28T15:07:17;25.42;;;3.33;;
40931;SDS011;36257;46.052;12.540;2024-02-28T15:09:43;14.18;;;3.13;;
40931;SDS011;36257;46.052;12.540;2024-02-28T15:12:08;16.35;;;2.97;;
40931;SDS011;36257;46.052;12.540;2024-02-28T15:14:34;14.60;;;3.03;;
40931;SDS011;36257;46.052;12.540;2024-02-28T15:17:00;15.07;;;3.40;;
40931;SDS011;36257;46.052;12.540;2024-02-28T15:19:26;9.98;;;2.53;;
40931;SDS011;36257;46.052;12.540;2024-02-28T15:21:53;11.40;;;2.63;;
40931;SDS011;36257;46.052;12.540;2024-02-28T15:24:19;10.00;;;3.10;;
40931;SDS011;36257;46.052;12.540;2024-02-28T15:26:46;16.58;;;3.63;;
40931;SDS011;36257;46.052;12.540;2024-02-28T15:29:12;11.57;;;2.88;;
40931;SDS011;36257;46.052;12.540;2024-02-28T15:31:38;13.85;;;3.67;;
40931;SDS011;36257;46.052;12.540;2024-02-28T15:34:04;12.20;;;3.15;;
40931;SDS011;36257;46.052;12.540;2024-02-28T15:36:30;13.45;;;3.50;;
40931;SDS011;36257;46.052;12.540;2024-02-28T15:38:55;11.13;;;3.25;;
40931;SDS011;36257;46.052;12.540;2024-02-28T15:41:21;17.20;;;3.33;;
40931;SDS011;36257;46.052;12.540;2024-02-28T15:43:49;12.15;;;3.28;;
40931;SDS011;36257;46.052;12.540;2024-02-28T15:46:14;14.82;;;4.93;;
40931;SDS011;36257;46.052;12.540;2024-02-28T15:48:40;9.23;;;4.95;;
40931;SDS011;36257;46.052;12.540;2024-02-28T15:51:06;13.15;;;4.75;;
40931;SDS011;36257;46.052;12.540;2024-02-28T15:53:32;14.57;;;4.47;;
40931;SDS011;36257;46.052;12.540;2024-02-28T15:58:25;21.10;;;8.82;;
40931;SDS011;36257;46.052;12.540;2024-02-28T16:00:53;25.33;;;7.90;;
40931;SDS011;36257;46.052;12.540;2024-02-28T16:03:19;16.05;;;6.32;;
40931;SDS011;36257;46.052;12.540;2024-02-28T16:05:44;17.00;;;4.80;;
40931;SDS011;36257;46.052;12.540;2024-02-28T16:08:10;14.50;;;4.07;;
40931;SDS011;36257;46.052;12.540;2024-02-28T16:10:35;15.57;;;3.65;;
40931;SDS011;36257;46.052;12.540;2024-02-28T16:13:02;12.82;;;4.18;;
40931;SDS011;36257;46.052;12.540;2024-02-28T16:15:28;10.68;;;2.90;;
40931;SDS011;36257;46.052;12.540;2024-02-28T16:17:54;17.90;;;3.75;;
40931;SDS011;36257;46.052;12.540;2024-02-28T16:20:20;10.73;;;3.38;;
40931;SDS011;36257;46.052;12.540;2024-02-28T16:22:46;13.65;;;2.92;;
40931;SDS011;36257;46.052;12.540;2024-02-28T16:25:11;14.00;;;4.07;;
40931;SDS011;36257;46.052;12.540;2024-02-28T16:27:38;14.00;;;2.80;;
40931;SDS011;36257;46.052;12.540;2024-02-28T16:30:04;19.48;;;3.83;;
40931;SDS011;36257;46.052;12.540;2024-02-28T16:32:33;13.85;;;3.22;;
40931;SDS011;36257;46.052;12.540;2024-02-28T16:34:59;9.55;;;3.28;;
40931;SDS011;36257;46.052;12.540;2024-02-28T16:37:24;14.95;;;4.25;;
40931;SDS011;36257;46.052;12.540;2024-02-28T16:39:50;13.55;;;4.25;;
40931;SDS011;36257;46.052;12.540;2024-02-28T16:42:16;19.10;;;4.93;;
40931;SDS011;36257;46.052;12.540;2024-02-28T16:44:42;21.00;;;5.50;;
40931;SDS011;36257;46.052;12.540;2024-02-28T16:47:08;23.40;;;5.72;;
40931;SDS011;36257;46.052;12.540;2024-02-28T16:49:33;11.38;;;3.65;;
40931;SDS011;36257;46.052;12.540;2024-02-28T16:51:59;19.23;;;6.90;;
40931;SDS011;36257;46.052;12.540;2024-02-28T16:54:24;19.75;;;6.43;;
40931;SDS011;36257;46.052;12.540;2024-02-28T16:56:50;18.33;;;6.40;;
40931;SDS011;36257;46.052;12.540;2024-02-28T16:59:16;16.98;;;7.57;;
40931;SDS011;36257;46.052;12.540;2024-02-28T17:01:42;16.27;;;7.43;;
40931;SDS011;36257;46.052;12.540;2024-02-28T17:04:11;14.48;;;5.18;;
40931;SDS011;36257;46.052;12.540;2024-02-28T17:06:38;16.63;;;7.25;;
40931;SDS011;36257;46.052;12.540;2024-02-28T17:09:04;18.92;;;8.05;;
40931;SDS011;36257;46.052;12.540;2024-02-28T17:11:32;20.50;;;9.25;;